Time;durP1;ratioP1;P1;durP2;ratioP2;P2;SDS_P1;SDS_P2;PMS_P1;PMS_P2;Temp;Humidity;BMP_temperature;BMP_pressure;BME280_temperature;BME280_humidity;BME280_pressure;Samples;Min_cycle;Max_cycle;Signal;HPM_P1;HPM_P2
2021/05/13 00:04:06;;;;;;;2.47;1.77;;;;;;;;;;10279202;28;20087;-60
2021/05/13 00:09:05;;;;;;;1.80;1.65;;;;;;;;;;10278435;28;20052;-60
2021/05/13 00:14:04;;;;;;;4.30;2.10;;;;;;;;;;10277555;28;20045;-60
2021/05/13 00:19:05;;;;;;;3.35;1.80;;;;;;;;;;10278704;28;20081;-60
2021/05/13 00:24:03;;;;;;;4.25;2.15;;;;;;;;;;10278441;28;20080;-60
2021/05/13 00:29:01;;;;;;;2.33;2.08;;;;;;;;;;10278575;28;20060;-60
2021/05/13 00:34:00;;;;;;;2.05;1.85;;;;;;;;;;10278054;28;20052;-60
2021/05/13 00:38:59;;;;;;;2.30;1.80;;;;;;;;;;10278089;28;20049;-60
2021/05/13 00:43:57;;;;;;;3.00;1.90;;;;;;;;;;10277816;28;20081;-60
2021/05/13 00:49:02;;;;;;;2.70;1.88;;;;;;;;;;10277607;28;20053;-60
2021/05/13 00:54:01;;;;;;;2.75;2.13;;;;;;;;;;10277289;28;20095;-60
2021/05/13 00:59:02;;;;;;;3.75;2.85;;;;;;;;;;10276379;28;20498;-61
2021/05/13 01:04:00;;;;;;;4.38;1.80;;;;;;;;;;10276880;28;20069;-60
2021/05/13 01:08:58;;;;;;;3.97;2.00;;;;;;;;;;10276740;28;20068;-60
2021/05/13 01:14:00;;;;;;;4.97;1.85;;;;;;;;;;10276546;28;20080;-59
2021/05/13 01:18:59;;;;;;;3.95;1.92;;;;;;;;;;10276505;28;20443;-60
2021/05/13 01:23:58;;;;;;;3.85;2.15;;;;;;;;;;10276230;28;20076;-59
2021/05/13 01:28:55;;;;;;;4.30;2.10;;;;;;;;;;10276387;28;20073;-60
2021/05/13 01:33:53;;;;;;;2.83;2.15;;;;;;;;;;10276349;28;20045;-60
2021/05/13 01:38:51;;;;;;;3.58;2.28;;;;;;;;;;10276156;28;20083;-60
2021/05/13 01:43:50;;;;;;;2.40;2.17;;;;;;;;;;10275805;28;20095;-59
2021/05/13 01:48:48;;;;;;;3.50;2.00;;;;;;;;;;10275897;28;20171;-59
2021/05/13 01:53:46;;;;;;;5.32;2.20;;;;;;;;;;10278534;28;20095;-60
2021/05/13 01:58:44;;;;;;;2.50;1.85;;;;;;;;;;10283469;28;20077;-60
2021/05/13 02:03:44;;;;;;;4.75;2.50;;;;;;;;;;10283675;28;20537;-59
2021/05/13 02:08:42;;;;;;;2.45;2.08;;;;;;;;;;10283424;28;20045;-60
2021/05/13 02:13:40;;;;;;;2.75;2.40;;;;;;;;;;10282640;28;20041;-60
2021/05/13 02:18:38;;;;;;;3.63;2.60;;;;;;;;;;10283185;28;20056;-60
2021/05/13 02:23:38;;;;;;;4.72;2.35;;;;;;;;;;10282574;28;20080;-60
2021/05/13 02:28:36;;;;;;;4.03;2.35;;;;;;;;;;10281954;28;20056;-60
2021/05/13 02:33:34;;;;;;;6.43;2.67;;;;;;;;;;10282914;28;20410;-60
2021/05/13 02:38:37;;;;;;;4.35;2.30;;;;;;;;;;10282333;28;20029;-59
2021/05/13 02:43:35;;;;;;;3.22;2.92;;;;;;;;;;10281939;28;20083;-60
2021/05/13 02:48:33;;;;;;;3.45;2.17;;;;;;;;;;10281842;28;20045;-60
2021/05/13 02:53:31;;;;;;;2.72;1.80;;;;;;;;;;10281608;28;20045;-59
2021/05/13 02:58:30;;;;;;;5.25;2.22;;;;;;;;;;10281093;28;20056;-59
2021/05/13 03:03:28;;;;;;;6.28;2.40;;;;;;;;;;10297696;28;20084;-59
2021/05/13 03:08:25;;;;;;;5.60;2.10;;;;;;;;;;10297446;28;20076;-59
2021/05/13 03:13:25;;;;;;;2.65;2.45;;;;;;;;;;10278342;28;20072;-60
2021/05/13 03:18:26;;;;;;;3.40;2.30;;;;;;;;;;10279600;28;20056;-60
2021/05/13 03:23:27;;;;;;;4.18;2.40;;;;;;;;;;10285855;28;20080;-60
2021/05/13 03:28:25;;;;;;;4.07;2.65;;;;;;;;;;10301062;28;20064;-59
2021/05/13 03:33:23;;;;;;;5.18;2.50;;;;;;;;;;10295974;28;20064;-60
2021/05/13 03:38:21;;;;;;;5.03;2.40;;;;;;;;;;10280153;28;20033;-59
2021/05/13 03:43:19;;;;;;;4.05;2.13;;;;;;;;;;10309825;28;20071;-59
2021/05/13 03:48:17;;;;;;;3.08;2.50;;;;;;;;;;10320428;28;20587;-60
2021/05/13 03:53:16;;;;;;;10.35;2.88;;;;;;;;;;10320232;28;20040;-60
2021/05/13 03:58:13;;;;;;;4.93;3.00;;;;;;;;;;10318814;28;20052;-60
2021/05/13 04:03:11;;;;;;;4.07;2.78;;;;;;;;;;10319811;28;20516;-60
2021/05/13 04:08:10;;;;;;;4.55;2.92;;;;;;;;;;10345604;28;20044;-60
2021/05/13 04:13:10;;;;;;;4.47;2.30;;;;;;;;;;10360441;28;20040;-60
2021/05/13 04:18:22;;;;;;;6.13;2.95;;;;;;;;;;10360020;28;20047;-61
2021/05/13 04:23:20;;;;;;;6.43;2.78;;;;;;;;;;10360066;28;20071;-61
2021/05/13 04:28:18;;;;;;;4.55;2.67;;;;;;;;;;10359493;28;20080;-61
2021/05/13 04:33:16;;;;;;;5.05;2.83;;;;;;;;;;10360119;28;20496;-58
2021/05/13 04:38:16;;;;;;;6.68;2.70;;;;;;;;;;10359831;28;20048;-58
2021/05/13 04:43:14;;;;;;;2.92;2.72;;;;;;;;;;10358198;28;20059;-58
2021/05/13 04:48:15;;;;;;;2.63;2.33;;;;;;;;;;10356111;28;20072;-60
2021/05/13 04:53:14;;;;;;;4.05;2.78;;;;;;;;;;10354842;28;20082;-61
2021/05/13 04:58:12;;;;;;;4.72;3.22;;;;;;;;;;10354325;28;20518;-60
2021/05/13 05:03:10;;;;;;;6.25;3.17;;;;;;;;;;10357247;28;20075;-61
2021/05/13 05:08:09;;;;;;;10.82;4.65;;;;;;;;;;10358790;28;20040;-60
2021/05/13 05:13:07;;;;;;;12.55;4.80;;;;;;;;;;10358422;28;20040;-60
2021/05/13 05:18:05;;;;;;;6.30;3.67;;;;;;;;;;10358252;28;20076;-60
2021/05/13 05:23:03;;;;;;;9.07;3.22;;;;;;;;;;10358252;28;20083;-60
2021/05/13 05:28:01;;;;;;;5.65;2.60;;;;;;;;;;10357261;28;20048;-58
2021/05/13 05:32:59;;;;;;;4.38;2.83;;;;;;;;;;10358072;28;20073;-59
2021/05/13 05:37:57;;;;;;;7.05;2.70;;;;;;;;;;10357935;28;20055;-59
2021/05/13 05:42:58;;;;;;;9.45;2.85;;;;;;;;;;10357501;28;20462;-60
2021/05/13 05:48:00;;;;;;;6.15;3.10;;;;;;;;;;10357066;28;20044;-60
2021/05/13 05:52:58;;;;;;;9.30;3.38;;;;;;;;;;10357568;28;20039;-60
2021/05/13 05:57:55;;;;;;;6.60;3.50;;;;;;;;;;10357250;28;20060;-60
2021/05/13 06:02:53;;;;;;;9.85;6.30;;;;;;;;;;10356879;28;20078;-60
2021/05/13 06:07:52;;;;;;;10.27;6.03;;;;;;;;;;10357609;28;20067;-60
2021/05/13 06:12:52;;;;;;;6.90;4.53;;;;;;;;;;10357123;28;20036;-59
2021/05/13 06:17:50;;;;;;;7.82;4.57;;;;;;;;;;10357215;28;20051;-59
2021/05/13 06:22:48;;;;;;;7.25;6.55;;;;;;;;;;10356722;28;20500;-60
2021/05/13 06:27:47;;;;;;;7.20;6.07;;;;;;;;;;10355845;28;20048;-59
2021/05/13 06:32:45;;;;;;;7.80;6.20;;;;;;;;;;10357058;28;20040;-60
2021/05/13 06:37:43;;;;;;;7.50;6.75;;;;;;;;;;10356624;28;20140;-60
2021/05/13 06:42:41;;;;;;;9.90;8.93;;;;;;;;;;10364046;28;20087;-61
2021/05/13 06:47:41;;;;;;;11.23;8.80;;;;;;;;;;10363853;28;20063;-61
2021/05/13 06:52:39;;;;;;;11.02;9.95;;;;;;;;;;10363053;28;20044;-59
2021/05/13 06:57:37;;;;;;;8.35;7.63;;;;;;;;;;10363178;28;20056;-61
2021/05/13 07:02:35;;;;;;;8.82;7.95;;;;;;;;;;10363270;28;20082;-58
2021/05/13 07:07:38;;;;;;;8.48;6.90;;;;;;;;;;10363230;28;20419;-60
2021/05/13 07:12:37;;;;;;;6.47;5.88;;;;;;;;;;10363060;28;20072;-61
2021/05/13 07:17:48;;;;;;;11.68;6.03;;;;;;;;;;10362970;28;20048;-61
2021/05/13 07:22:47;;;;;;;6.72;5.57;;;;;;;;;;10362296;28;20094;-60
2021/05/13 07:27:44;;;;;;;6.82;5.85;;;;;;;;;;10361884;28;20040;-58
2021/05/13 07:32:43;;;;;;;6.95;5.50;;;;;;;;;;10362455;28;20054;-59
2021/05/13 07:37:41;;;;;;;6.70;5.18;;;;;;;;;;10361785;28;20051;-59
2021/05/13 07:42:40;;;;;;;8.95;5.78;;;;;;;;;;10361717;28;20078;-60
2021/05/13 07:47:38;;;;;;;8.35;6.38;;;;;;;;;;10360928;28;20063;-60
2021/05/13 07:52:36;;;;;;;9.65;7.18;;;;;;;;;;10359143;28;20059;-59
2021/05/13 07:57:34;;;;;;;8.05;7.25;;;;;;;;;;10361428;28;20060;-59
2021/05/13 08:02:33;;;;;;;7.95;6.35;;;;;;;;;;10360877;28;20592;-59
2021/05/13 08:07:31;;;;;;;11.93;7.20;;;;;;;;;;10361106;28;20051;-60
2021/05/13 08:12:29;;;;;;;9.00;6.75;;;;;;;;;;10360478;28;20524;-60
2021/05/13 08:17:27;;;;;;;8.57;6.53;;;;;;;;;;10360484;28;20040;-59
2021/05/13 08:22:25;;;;;;;10.95;7.43;;;;;;;;;;10360056;28;20047;-59
2021/05/13 08:27:23;;;;;;;8.70;7.20;;;;;;;;;;10358227;28;20044;-60
2021/05/13 08:32:21;;;;;;;8.35;7.28;;;;;;;;;;10360086;28;20083;-60
2021/05/13 08:37:19;;;;;;;7.68;6.88;;;;;;;;;;10359773;28;20076;-59
2021/05/13 08:42:18;;;;;;;10.55;7.45;;;;;;;;;;10359045;28;20055;-61
2021/05/13 08:47:16;;;;;;;7.40;5.85;;;;;;;;;;10359086;28;20044;-59
2021/05/13 08:52:16;;;;;;;6.18;5.57;;;;;;;;;;10359001;28;20059;-59
2021/05/13 08:57:14;;;;;;;8.18;6.13;;;;;;;;;;10358532;28;20420;-59
2021/05/13 09:02:12;;;;;;;7.07;5.22;;;;;;;;;;10358554;28;20040;-59
2021/05/13 09:07:13;;;;;;;6.68;5.72;;;;;;;;;;10358302;28;20071;-59
2021/05/13 09:12:11;;;;;;;8.30;6.22;;;;;;;;;;10358323;28;20040;-59
2021/05/13 09:17:23;;;;;;;8.30;6.10;;;;;;;;;;10358347;28;20052;-59
2021/05/13 09:22:24;;;;;;;8.32;5.25;;;;;;;;;;10357924;28;20064;-60
2021/05/13 09:27:23;;;;;;;4.65;4.20;;;;;;;;;;10357874;28;20044;-60
2021/05/13 09:32:21;;;;;;;6.30;4.43;;;;;;;;;;10358111;28;20048;-60
2021/05/13 09:37:19;;;;;;;7.63;4.88;;;;;;;;;;10357266;28;20040;-60
2021/05/13 09:42:19;;;;;;;4.57;4.18;;;;;;;;;;10357651;28;20063;-60
2021/05/13 09:47:19;;;;;;;3.70;3.35;;;;;;;;;;10357323;28;20067;-61
2021/05/13 09:52:35;;;;;;;5.65;3.30;;;;;;;;;;10357377;28;20432;-60
2021/05/13 09:57:33;;;;;;;4.30;2.85;;;;;;;;;;10355503;28;20060;-60
2021/05/13 10:02:31;;;;;;;4.35;3.58;;;;;;;;;;10356261;28;20040;-60
2021/05/13 10:07:29;;;;;;;5.32;3.47;;;;;;;;;;10357111;28;20072;-60
2021/05/13 10:12:27;;;;;;;3.88;3.47;;;;;;;;;;10357029;28;20142;-59
2021/05/13 10:17:26;;;;;;;5.60;2.95;;;;;;;;;;10364724;28;20520;-60
2021/05/13 10:22:24;;;;;;;5.13;3.63;;;;;;;;;;10364900;28;20051;-59
2021/05/13 10:27:22;;;;;;;4.63;2.80;;;;;;;;;;10364639;28;20075;-60
2021/05/13 10:32:21;;;;;;;4.93;3.45;;;;;;;;;;10364633;28;20040;-59
2021/05/13 10:37:29;;;;;;;3.83;2.88;;;;;;;;;;10364118;28;20416;-60
2021/05/13 10:42:28;;;;;;;3.92;2.88;;;;;;;;;;10364209;28;20321;-59
2021/05/13 10:47:27;;;;;;;6.78;3.55;;;;;;;;;;10363937;28;20084;-60
2021/05/13 10:52:36;;;;;;;6.20;3.03;;;;;;;;;;10363769;28;20036;-60
2021/05/13 10:57:49;;;;;;;6.00;3.28;;;;;;;;;;10363417;28;20260;-59
2021/05/13 11:02:47;;;;;;;5.93;3.83;;;;;;;;;;10361507;28;20048;-59
2021/05/13 11:07:46;;;;;;;6.57;5.88;;;;;;;;;;10363116;28;20560;-60
2021/05/13 11:12:44;;;;;;;3.20;2.90;;;;;;;;;;10363413;28;20485;-60
2021/05/13 11:18:01;;;;;;;6.65;3.17;;;;;;;;;;10363154;28;20300;-59
2021/05/13 11:23:01;;;;;;;3.95;3.35;;;;;;;;;;10361765;28;20070;-60
2021/05/13 11:27:59;;;;;;;5.30;3.47;;;;;;;;;;10360924;28;20036;-58
2021/05/13 11:32:57;;;;;;;4.72;4.10;;;;;;;;;;10361211;28;20044;-61
2021/05/13 11:37:55;;;;;;;3.20;2.75;;;;;;;;;;10362168;28;20082;-60
2021/05/13 11:43:08;;;;;;;4.80;3.55;;;;;;;;;;10361949;28;20040;-60
2021/05/13 11:48:18;;;;;;;4.53;2.72;;;;;;;;;;10361296;28;20055;-61
2021/05/13 11:53:17;;;;;;;4.30;3.78;;;;;;;;;;10361181;28;20090;-60
2021/05/13 11:58:16;;;;;;;3.10;2.40;;;;;;;;;;10361248;28;20079;-60
2021/05/13 12:03:15;;;;;;;8.00;5.90;;;;;;;;;;10361079;28;20086;-60
2021/05/13 12:08:15;;;;;;;5.90;3.25;;;;;;;;;;10360366;28;20505;-60
2021/05/13 12:13:13;;;;;;;6.97;5.38;;;;;;;;;;10360767;28;20072;-61
2021/05/13 12:18:11;;;;;;;6.50;3.58;;;;;;;;;;10360648;28;20126;-60
2021/05/13 12:23:09;;;;;;;8.63;4.25;;;;;;;;;;10360368;28;20079;-60
2021/05/13 12:28:08;;;;;;;6.68;4.53;;;;;;;;;;10359525;28;20072;-60
2021/05/13 12:33:20;;;;;;;17.98;10.00;;;;;;;;;;10359966;28;20048;-60
2021/05/13 12:38:20;;;;;;;3.78;2.75;;;;;;;;;;10359420;28;20051;-60
2021/05/13 12:43:19;;;;;;;5.50;2.95;;;;;;;;;;10358835;28;20055;-61
2021/05/13 12:48:21;;;;;;;5.97;2.88;;;;;;;;;;10359544;28;20044;-60
2021/05/13 12:53:19;;;;;;;6.43;4.22;;;;;;;;;;10359326;28;20055;-60
2021/05/13 12:58:18;;;;;;;5.80;3.85;;;;;;;;;;10358790;28;20059;-60
2021/05/13 13:03:17;;;;;;;3.47;2.72;;;;;;;;;;10359026;28;20497;-60
2021/05/13 13:08:30;;;;;;;2.70;2.10;;;;;;;;;;10358980;28;20076;-61
2021/05/13 13:13:36;;;;;;;6.40;2.50;;;;;;;;;;10358483;28;20044;-60
2021/05/13 13:18:35;;;;;;;5.63;3.20;;;;;;;;;;10358600;28;20055;-60
2021/05/13 13:23:33;;;;;;;4.55;2.63;;;;;;;;;;10358412;28;20429;-60
2021/05/13 13:28:31;;;;;;;3.20;2.90;;;;;;;;;;10358285;28;20396;-60
2021/05/13 13:33:29;;;;;;;5.97;2.42;;;;;;;;;;10358287;28;20109;-60
2021/05/13 13:38:29;;;;;;;4.32;3.35;;;;;;;;;;10357925;28;20044;-60
2021/05/13 13:43:27;;;;;;;7.28;3.50;;;;;;;;;;10357805;28;20040;-60
2021/05/13 13:48:28;;;;;;;4.40;3.03;;;;;;;;;;10359444;28;20082;-60
2021/05/13 13:53:27;;;;;;;3.78;2.95;;;;;;;;;;10366137;28;20052;-60
2021/05/13 13:58:26;;;;;;;2.67;2.28;;;;;;;;;;10365693;28;20059;-60
2021/05/13 14:03:24;;;;;;;3.30;3.00;;;;;;;;;;10365053;28;20228;-60
2021/05/13 14:08:24;;;;;;;4.50;4.07;;;;;;;;;;10365698;28;20079;-60
2021/05/13 14:13:22;;;;;;;5.57;2.95;;;;;;;;;;10365350;28;20047;-60
2021/05/13 14:18:21;;;;;;;10.10;4.10;;;;;;;;;;10365292;28;20047;-60
2021/05/13 14:23:18;;;;;;;5.22;4.05;;;;;;;;;;10365055;28;20079;-60
2021/05/13 14:28:17;;;;;;;4.63;2.50;;;;;;;;;;10364812;28;20076;-60
2021/05/13 14:33:14;;;;;;;3.97;2.10;;;;;;;;;;10364768;28;20045;-60
2021/05/13 14:38:13;;;;;;;4.40;3.53;;;;;;;;;;10364012;28;20036;-60
2021/05/13 14:43:12;;;;;;;9.23;3.60;;;;;;;;;;10364526;28;20051;-60
2021/05/13 14:48:16;;;;;;;3.85;3.25;;;;;;;;;;10356900;28;20135;-60
2021/05/13 14:53:14;;;;;;;3.95;3.28;;;;;;;;;;10300167;28;20071;-60
2021/05/13 14:58:12;;;;;;;7.05;2.70;;;;;;;;;;10291668;28;20301;-59
2021/05/13 15:03:10;;;;;;;6.60;5.90;;;;;;;;;;10309383;28;20470;-59
2021/05/13 15:08:08;;;;;;;9.50;6.50;;;;;;;;;;10318208;28;20084;-59
2021/05/13 15:13:10;;;;;;;6.20;4.25;;;;;;;;;;10317594;28;20528;-60
2021/05/13 15:18:08;;;;;;;12.88;10.93;;;;;;;;;;10321714;28;20049;-60
2021/05/13 15:23:05;;;;;;;14.77;8.82;;;;;;;;;;10321592;28;20068;-60
2021/05/13 15:28:07;;;;;;;13.75;10.60;;;;;;;;;;10321437;28;20087;-60
2021/05/13 15:33:06;;;;;;;6.22;4.70;;;;;;;;;;10321188;28;20048;-60
2021/05/13 15:38:04;;;;;;;4.47;4.07;;;;;;;;;;10321132;28;20409;-60
2021/05/13 15:43:02;;;;;;;5.50;3.70;;;;;;;;;;10320964;28;20077;-60
2021/05/13 15:48:09;;;;;;;10.57;4.67;;;;;;;;;;10320705;28;20622;-60
2021/05/13 15:53:07;;;;;;;4.97;3.38;;;;;;;;;;10320689;28;20053;-60
2021/05/13 15:58:05;;;;;;;5.32;3.30;;;;;;;;;;10320071;28;20506;-60
2021/05/13 16:03:03;;;;;;;3.85;2.70;;;;;;;;;;10319967;28;20075;-59
2021/05/13 16:08:03;;;;;;;6.40;4.07;;;;;;;;;;10319871;28;20458;-59
2021/05/13 16:13:08;;;;;;;13.73;7.80;;;;;;;;;;10318737;28;20068;-59
2021/05/13 16:18:06;;;;;;;7.20;5.45;;;;;;;;;;10319426;28;20040;-59
2021/05/13 16:23:06;;;;;;;5.68;3.50;;;;;;;;;;10319286;28;20461;-59
2021/05/13 16:28:03;;;;;;;16.95;14.35;;;;;;;;;;10318992;28;20087;-59
2021/05/13 16:33:01;;;;;;;6.43;5.10;;;;;;;;;;10318994;28;20049;-60
2021/05/13 16:37:59;;;;;;;6.90;4.82;;;;;;;;;;10318590;28;20040;-60
2021/05/13 16:43:01;;;;;;;8.80;4.47;;;;;;;;;;10318205;28;20048;-61
2021/05/13 16:47:59;;;;;;;6.72;3.97;;;;;;;;;;10318207;28;20079;-60
2021/05/13 16:52:57;;;;;;;13.95;5.40;;;;;;;;;;10317456;28;20535;-60
2021/05/13 16:58:00;;;;;;;11.15;4.60;;;;;;;;;;10317570;28;20505;-60
2021/05/13 17:02:58;;;;;;;7.80;4.60;;;;;;;;;;10317964;28;20048;-60
2021/05/13 17:07:59;;;;;;;12.20;5.43;;;;;;;;;;10317939;28;20106;-60
2021/05/13 17:13:01;;;;;;;12.35;7.97;;;;;;;;;;10317668;28;20532;-60
2021/05/13 17:17:59;;;;;;;7.72;4.22;;;;;;;;;;10317318;28;20076;-60
2021/05/13 17:22:59;;;;;;;10.77;4.95;;;;;;;;;;10317109;28;20044;-60
2021/05/13 17:27:58;;;;;;;10.20;3.95;;;;;;;;;;10314965;28;20063;-60
2021/05/13 17:32:56;;;;;;;8.63;4.78;;;;;;;;;;10316810;28;20064;-60
2021/05/13 17:37:54;;;;;;;7.82;4.88;;;;;;;;;;10312787;28;20064;-60
2021/05/13 17:42:52;;;;;;;4.63;4.13;;;;;;;;;;10289791;28;20060;-61
2021/05/13 17:47:51;;;;;;;9.98;3.95;;;;;;;;;;10293904;28;20087;-61
2021/05/13 17:52:49;;;;;;;6.38;3.92;;;;;;;;;;10311717;28;20048;-61
2021/05/13 17:57:48;;;;;;;9.52;4.13;;;;;;;;;;10290752;28;20103;-62
2021/05/13 18:02:47;;;;;;;13.75;8.02;;;;;;;;;;10279417;28;20056;-61
2021/05/13 18:07:46;;;;;;;8.82;5.90;;;;;;;;;;10291703;28;20084;-61
2021/05/13 18:12:45;;;;;;;12.77;6.15;;;;;;;;;;10287767;28;20064;-60
2021/05/13 18:17:43;;;;;;;7.97;4.68;;;;;;;;;;10286211;28;20052;-59
2021/05/13 18:22:43;;;;;;;8.13;4.13;;;;;;;;;;10294202;28;20033;-60
2021/05/13 18:27:44;;;;;;;10.90;5.78;;;;;;;;;;10288678;28;20080;-61
2021/05/13 18:32:43;;;;;;;12.73;7.63;;;;;;;;;;10307215;28;20412;-61
2021/05/13 18:37:41;;;;;;;7.57;4.45;;;;;;;;;;10320569;28;20076;-60
2021/05/13 18:42:39;;;;;;;13.73;5.60;;;;;;;;;;10322832;28;20083;-58
2021/05/13 18:47:38;;;;;;;21.05;6.20;;;;;;;;;;10322714;28;20072;-60
2021/05/13 18:52:36;;;;;;;10.60;5.65;;;;;;;;;;10305855;28;20104;-58
2021/05/13 18:57:34;;;;;;;10.70;6.47;;;;;;;;;;10295891;28;20087;-57
2021/05/13 19:02:32;;;;;;;7.38;4.50;;;;;;;;;;10284572;28;20083;-58
2021/05/13 19:07:31;;;;;;;6.55;4.93;;;;;;;;;;10281486;28;20087;-58
2021/05/13 19:12:28;;;;;;;5.50;4.50;;;;;;;;;;10291965;28;20064;-58
2021/05/13 19:17:27;;;;;;;5.30;4.07;;;;;;;;;;10280868;28;20050;-58
2021/05/13 19:22:27;;;;;;;7.28;3.88;;;;;;;;;;10303699;28;20092;-58
2021/05/13 19:27:26;;;;;;;5.38;3.13;;;;;;;;;;10289153;28;20088;-59
2021/05/13 19:37:40;;;;;;;4.03;2.85;;;;;;;;;;10290191;28;20064;-58
2021/05/13 19:42:38;;;;;;;2.13;1.80;;;;;;;;;;10280011;28;20092;-60
2021/05/13 19:47:36;;;;;;;2.15;1.80;;;;;;;;;;10294484;28;20462;-60
2021/05/13 19:52:35;;;;;;;4.57;1.90;;;;;;;;;;10302861;28;20081;-60
2021/05/13 19:57:33;;;;;;;2.53;2.00;;;;;;;;;;10304981;28;20092;-58
2021/05/13 20:02:35;;;;;;;2.38;2.05;;;;;;;;;;10302729;28;20079;-58
2021/05/13 20:07:49;;;;;;;5.78;2.10;;;;;;;;;;10285442;28;20515;-59
2021/05/13 20:12:47;;;;;;;2.25;1.80;;;;;;;;;;10292738;28;20056;-59
2021/05/13 20:17:45;;;;;;;2.92;2.33;;;;;;;;;;10278014;28;20041;-60
2021/05/13 20:22:44;;;;;;;5.75;3.10;;;;;;;;;;10278640;28;20066;-60
2021/05/13 20:27:47;;;;;;;2.85;1.67;;;;;;;;;;10277162;28;20084;-60
2021/05/13 20:32:49;;;;;;;2.35;1.98;;;;;;;;;;10288653;28;20075;-58
2021/05/13 20:37:48;;;;;;;2.92;2.20;;;;;;;;;;10278572;28;20056;-60
2021/05/13 20:42:49;;;;;;;2.85;1.88;;;;;;;;;;10277932;28;20045;-59
2021/05/13 20:47:50;;;;;;;4.07;2.50;;;;;;;;;;10277728;28;20073;-58
2021/05/13 20:58:22;;;;;;;2.72;2.40;;;;;;;;;;10279091;28;20081;-60
2021/05/13 21:03:22;;;;;;;9.75;4.22;;;;;;;;;;10311202;28;20509;-59
2021/05/13 21:08:25;;;;;;;5.40;3.78;;;;;;;;;;10289982;28;20091;-59
2021/05/13 21:13:40;;;;;;;6.32;3.47;;;;;;;;;;10285633;28;20076;-59
2021/05/13 21:29:10;;;;;;;7.95;2.72;;;;;;;;;;10275767;28;20084;-58
2021/05/13 21:34:09;;;;;;;3.83;2.55;;;;;;;;;;10276754;28;20044;-59
2021/05/13 21:39:09;;;;;;;7.22;2.55;;;;;;;;;;10275725;28;20417;-59
2021/05/13 21:44:07;;;;;;;6.45;2.85;;;;;;;;;;10274882;28;20529;-60
2021/05/13 21:49:08;;;;;;;5.18;2.45;;;;;;;;;;10276206;28;20073;-60
2021/05/13 21:54:07;;;;;;;4.03;2.42;;;;;;;;;;10276467;28;20079;-60
2021/05/13 21:59:05;;;;;;;7.05;2.35;;;;;;;;;;10274408;28;20049;-59
2021/05/13 22:04:04;;;;;;;2.38;1.80;;;;;;;;;;10275855;28;20045;-59
2021/05/13 22:09:02;;;;;;;2.83;1.90;;;;;;;;;;10276488;28;20091;-60
2021/05/13 22:14:00;;;;;;;2.55;1.90;;;;;;;;;;10283769;28;20104;-59
2021/05/13 22:18:58;;;;;;;2.22;1.73;;;;;;;;;;10283805;28;20433;-60
2021/05/13 22:24:02;;;;;;;5.95;2.25;;;;;;;;;;10282224;28;20395;-59
2021/05/13 22:29:07;;;;;;;10.98;2.45;;;;;;;;;;10283316;28;20079;-59
2021/05/13 22:34:06;;;;;;;3.30;1.83;;;;;;;;;;10283180;28;20048;-60
2021/05/13 22:39:04;;;;;;;2.38;2.13;;;;;;;;;;10283067;28;20068;-60
2021/05/13 22:44:03;;;;;;;3.92;2.38;;;;;;;;;;10282849;28;20032;-60
2021/05/13 22:49:06;;;;;;;3.38;1.92;;;;;;;;;;10282477;28;20081;-60
2021/05/13 22:54:04;;;;;;;2.38;2.13;;;;;;;;;;10280648;28;20049;-60
2021/05/13 22:59:03;;;;;;;2.13;1.80;;;;;;;;;;10288479;28;20092;-59
2021/05/13 23:04:01;;;;;;;3.47;2.15;;;;;;;;;;10306323;28;20068;-60
2021/05/13 23:09:00;;;;;;;5.03;1.80;;;;;;;;;;10298300;28;20502;-60
2021/05/13 23:14:11;;;;;;;3.25;2.03;;;;;;;;;;10281669;28;20041;-59
2021/05/13 23:19:10;;;;;;;3.20;1.90;;;;;;;;;;10281515;28;20524;-60
2021/05/13 23:24:08;;;;;;;4.93;1.90;;;;;;;;;;10281090;28;20422;-59
2021/05/13 23:29:06;;;;;;;4.30;1.90;;;;;;;;;;10281017;28;20080;-60
2021/05/13 23:34:04;;;;;;;2.28;2.05;;;;;;;;;;10279928;28;20056;-59
2021/05/13 23:39:04;;;;;;;2.28;2.08;;;;;;;;;;10279472;28;20049;-60
2021/05/13 23:44:02;;;;;;;2.70;2.00;;;;;;;;;;10280848;28;20057;-60
2021/05/13 23:49:00;;;;;;;4.28;2.05;;;;;;;;;;10279596;28;20080;-59
2021/05/13 23:53:58;;;;;;;3.08;2.20;;;;;;;;;;10280496;28;20077;-60
2021/05/13 23:58:56;;;;;;;2.85;2.42;;;;;;;;;;10279747;28;20141;-60
